Time;durP1;ratioP1;P1;durP2;ratioP2;P2;SDS_P1;SDS_P2;PMS_P1;PMS_P2;Temp;Humidity;BMP_temperature;BMP_pressure;BME280_temperature;BME280_humidity;BME280_pressure;Samples;Min_cycle;Max_cycle;Signal;HPM_P1;HPM_P2
2024/05/05 00:01:37;;;;;;;4.28;1.85;;;;;;;;;;5336382;26;19997;-78
2024/05/05 00:04:03;;;;;;;4.78;2.58;;;;;;;;;;5343939;26;20098;-83
2024/05/05 00:06:28;;;;;;;4.63;2.63;;;;;;;;;;5353140;26;20000;-81
2024/05/05 00:08:56;;;;;;;3.00;1.38;;;;;;;;;;5342880;26;20871;-81
2024/05/05 00:11:22;;;;;;;2.58;2.05;;;;;;;;;;5349855;26;20074;-80
2024/05/05 00:13:47;;;;;;;6.88;3.13;;;;;;;;;;5338953;26;19997;-80
2024/05/05 00:16:13;;;;;;;4.72;2.63;;;;;;;;;;5351443;26;20000;-79
2024/05/05 00:18:41;;;;;;;5.80;2.30;;;;;;;;;;5344034;26;20008;-82
2024/05/05 00:21:07;;;;;;;3.47;2.58;;;;;;;;;;5342189;26;20008;-80
2024/05/05 00:23:40;;;;;;;3.40;2.25;;;;;;;;;;5342236;26;20064;-80
2024/05/05 00:26:05;;;;;;;6.28;3.30;;;;;;;;;;5347619;26;20492;-83
2024/05/05 00:28:31;;;;;;;2.83;2.22;;;;;;;;;;5348408;26;20001;-81
2024/05/05 00:30:57;;;;;;;4.95;3.03;;;;;;;;;;5343369;26;20001;-82
2024/05/05 00:33:22;;;;;;;6.53;3.83;;;;;;;;;;5342793;26;20001;-83
2024/05/05 00:35:48;;;;;;;2.70;2.40;;;;;;;;;;5343612;26;19997;-81
2024/05/05 00:38:13;;;;;;;3.78;3.05;;;;;;;;;;5343090;26;20099;-81
2024/05/05 00:40:51;;;;;;;4.97;2.75;;;;;;;;;;5339965;26;19998;-86
2024/05/05 00:43:22;;;;;;;3.83;2.97;;;;;;;;;;5347496;26;20057;-80
2024/05/05 00:45:47;;;;;;;3.05;2.45;;;;;;;;;;5340387;26;20017;-83
2024/05/05 00:48:17;;;;;;;3.72;2.65;;;;;;;;;;5347261;26;20004;-84
2024/05/05 00:50:52;;;;;;;3.40;1.95;;;;;;;;;;5342514;26;20166;-81
2024/05/05 00:53:27;;;;;;;4.88;2.60;;;;;;;;;;5337580;26;20340;-81
2024/05/05 00:56:07;;;;;;;;;;;;;;;;;;;;;
2024/05/05 00:58:36;;;;;;;3.72;2.63;;;;;;;;;;5340713;26;20352;-80
2024/05/05 01:01:02;;;;;;;6.45;2.85;;;;;;;;;;5343396;26;20572;-84
2024/05/05 01:03:28;;;;;;;9.70;1.88;;;;;;;;;;5348556;26;20008;-78
2024/05/05 01:06:07;;;;;;;3.25;2.50;;;;;;;;;;5342549;26;19996;-81
2024/05/05 01:08:39;;;;;;;2.88;1.73;;;;;;;;;;5339749;26;19997;-82
2024/05/05 01:11:11;;;;;;;3.28;1.98;;;;;;;;;;5348061;26;20009;-82
2024/05/05 01:13:42;;;;;;;9.23;2.55;;;;;;;;;;5345274;26;20052;-81
2024/05/05 01:16:09;;;;;;;2.67;1.65;;;;;;;;;;5345612;26;20005;-80
2024/05/05 01:18:38;;;;;;;2.35;2.03;;;;;;;;;;5353751;26;20008;-85
2024/05/05 01:21:10;;;;;;;3.35;1.92;;;;;;;;;;5354970;26;20000;-83
2024/05/05 01:23:38;;;;;;;4.80;2.25;;;;;;;;;;5346122;26;20012;-80
2024/05/05 01:26:04;;;;;;;2.63;1.67;;;;;;;;;;5335509;26;20444;-81
2024/05/05 01:28:30;;;;;;;1.70;1.45;;;;;;;;;;5329038;26;20001;-81
2024/05/05 01:31:01;;;;;;;3.10;2.22;;;;;;;;;;5345129;26;20009;-83
2024/05/05 01:33:26;;;;;;;2.97;1.77;;;;;;;;;;5336564;26;20009;-79
2024/05/05 01:35:55;;;;;;;3.80;2.03;;;;;;;;;;5349808;26;20006;-86
2024/05/05 01:38:20;;;;;;;1.75;1.50;;;;;;;;;;5344148;26;20077;-84
2024/05/05 01:40:57;;;;;;;6.25;2.78;;;;;;;;;;5342475;26;20000;-83
2024/05/05 01:43:23;;;;;;;4.38;2.17;;;;;;;;;;5357725;26;20004;-83
2024/05/05 01:45:59;;;;;;;9.05;3.40;;;;;;;;;;5413375;26;20014;-83
2024/05/05 01:48:24;;;;;;;36.05;13.98;;;;;;;;;;5406166;26;20011;-81
2024/05/05 01:51:03;;;;;;;14.65;6.28;;;;;;;;;;5414274;26;20392;-84
2024/05/05 01:53:28;;;;;;;4.55;2.78;;;;;;;;;;5414488;26;20115;-83
2024/05/05 01:55:54;;;;;;;4.10;2.28;;;;;;;;;;5413224;26;20014;-83
2024/05/05 01:58:19;;;;;;;4.57;2.00;;;;;;;;;;5377233;26;20346;-82
2024/05/05 02:00:51;;;;;;;3.33;2.13;;;;;;;;;;5377993;26;20007;-81
2024/05/05 02:03:45;;;;;;;2.13;1.92;;;;;;;;;;5385701;26;20003;-84
2024/05/05 02:06:24;;;;;;;4.60;2.08;;;;;;;;;;5387682;26;19998;-83
2024/05/05 02:08:53;;;;;;;2.60;1.77;;;;;;;;;;5419318;26;20751;-84
2024/05/05 02:11:19;;;;;;;6.18;2.35;;;;;;;;;;5392668;26;20237;-83
2024/05/05 02:13:54;;;;;;;2.67;1.85;;;;;;;;;;5386980;26;20004;-84
2024/05/05 02:16:44;;;;;;;1.75;1.65;;;;;;;;;;5389118;26;20044;-83
2024/05/05 02:19:15;;;;;;;2.53;1.48;;;;;;;;;;5385496;26;20004;-83
2024/05/05 02:21:43;;;;;;;1.85;1.58;;;;;;;;;;5387523;26;20003;-86
2024/05/05 02:24:29;;;;;;;3.40;2.22;;;;;;;;;;5383605;26;20452;-87
2024/05/05 02:26:55;;;;;;;3.35;2.67;;;;;;;;;;5384061;26;20004;-85
2024/05/05 02:29:24;;;;;;;3.63;2.58;;;;;;;;;;5381441;26;20072;-85
2024/05/05 02:32:04;;;;;;;;;;;;;;;;;;;;;
2024/05/05 02:34:51;;;;;;;1.27;1.17;;;;;;;;;;5414261;26;19999;-85
2024/05/05 02:37:24;;;;;;;3.35;2.17;;;;;;;;;;5377228;26;20000;-88
2024/05/05 02:40:01;;;;;;;2.53;1.52;;;;;;;;;;5384104;26;19995;-84
2024/05/05 02:42:26;;;;;;;5.53;3.22;;;;;;;;;;5387543;26;20003;-84
2024/05/05 02:45:04;;;;;;;3.90;2.58;;;;;;;;;;5353798;26;20001;-85
2024/05/05 02:47:30;;;;;;;2.40;1.67;;;;;;;;;;5346593;26;20005;-86
2024/05/05 02:49:56;;;;;;;5.60;2.67;;;;;;;;;;5334884;26;20075;-84
2024/05/05 02:52:23;;;;;;;3.72;2.90;;;;;;;;;;5340898;26;20017;-83
2024/05/05 02:54:53;;;;;;;2.40;2.03;;;;;;;;;;5335462;26;20425;-84
2024/05/05 02:57:24;;;;;;;2.20;1.38;;;;;;;;;;5348009;26;20011;-86
2024/05/05 02:59:50;;;;;;;6.22;2.00;;;;;;;;;;5343299;26;20027;-83
2024/05/05 03:02:15;;;;;;;3.85;2.63;;;;;;;;;;5345743;26;20338;-82
2024/05/05 03:04:43;;;;;;;23.42;3.90;;;;;;;;;;5346737;26;20338;-85
2024/05/05 03:07:12;;;;;;;10.85;5.68;;;;;;;;;;5339303;26;21624;-83
2024/05/05 03:09:42;;;;;;;12.25;6.85;;;;;;;;;;5340666;26;20075;-84
2024/05/05 03:12:10;;;;;;;9.45;4.85;;;;;;;;;;5341873;26;20070;-84
2024/05/05 03:14:45;;;;;;;12.98;7.07;;;;;;;;;;5345413;26;20000;-80
2024/05/05 03:17:35;;;;;;;10.43;7.18;;;;;;;;;;5341728;26;20009;-81
2024/05/05 03:20:08;;;;;;;7.00;4.15;;;;;;;;;;5330110;26;20051;-82
2024/05/05 03:22:33;;;;;;;4.15;2.47;;;;;;;;;;5343447;26;20036;-81
2024/05/05 03:24:59;;;;;;;7.00;3.83;;;;;;;;;;5336056;26;20040;-82
2024/05/05 03:27:24;;;;;;;5.07;3.15;;;;;;;;;;5343347;26;20352;-82
2024/05/05 03:29:54;;;;;;;4.50;3.50;;;;;;;;;;5344257;26;19997;-81
2024/05/05 03:32:36;;;;;;;4.57;3.00;;;;;;;;;;5339208;26;20004;-83
2024/05/05 03:35:05;;;;;;;2.85;1.85;;;;;;;;;;5340054;26;20330;-86
2024/05/05 03:37:31;;;;;;;3.83;3.08;;;;;;;;;;5334914;26;20012;-85
2024/05/05 03:39:56;;;;;;;10.60;5.75;;;;;;;;;;5344891;26;20803;-85
2024/05/05 03:42:22;;;;;;;3.88;3.47;;;;;;;;;;5348495;26;20000;-85
2024/05/05 03:44:56;;;;;;;2.50;1.98;;;;;;;;;;5344719;26;20363;-85
2024/05/05 03:47:24;;;;;;;2.33;1.70;;;;;;;;;;5339847;26;20000;-85
2024/05/05 03:50:00;;;;;;;1.70;1.58;;;;;;;;;;5347265;26;20004;-85
2024/05/05 03:52:32;;;;;;;3.50;1.90;;;;;;;;;;5330810;26;20008;-85
2024/05/05 03:54:57;;;;;;;6.43;3.47;;;;;;;;;;5336994;26;20005;-85
2024/05/05 03:57:28;;;;;;;2.92;2.10;;;;;;;;;;5340545;26;20021;-84
2024/05/05 03:59:59;;;;;;;3.88;1.92;;;;;;;;;;5347261;26;19993;-85
2024/05/05 04:02:33;;;;;;;6.82;2.42;;;;;;;;;;5313233;26;20063;-86
2024/05/05 04:05:04;;;;;;;7.85;3.58;;;;;;;;;;5319327;26;20504;-84
2024/05/05 04:07:34;;;;;;;2.45;2.13;;;;;;;;;;5313159;26;21079;-85
2024/05/05 04:10:04;;;;;;;4.25;2.20;;;;;;;;;;5313382;26;20110;-82
2024/05/05 04:12:43;;;;;;;2.45;1.98;;;;;;;;;;5309572;26;20008;-85
2024/05/05 04:15:16;;;;;;;2.13;1.83;;;;;;;;;;5329510;26;20036;-86
2024/05/05 04:17:48;;;;;;;3.20;2.10;;;;;;;;;;5346359;26;20017;-83
2024/05/05 04:20:16;;;;;;;2.50;2.25;;;;;;;;;;5304289;26;20011;-86
2024/05/05 04:22:54;;;;;;;4.35;2.42;;;;;;;;;;5304289;26;20027;-81
2024/05/05 04:25:33;;;;;;;4.32;3.55;;;;;;;;;;5304578;26;20487;-82
2024/05/05 04:27:59;;;;;;;3.78;2.08;;;;;;;;;;5346875;26;20017;-80
2024/05/05 04:30:27;;;;;;;10.02;2.47;;;;;;;;;;5315424;26;20532;-81
2024/05/05 04:32:55;;;;;;;4.70;3.05;;;;;;;;;;5329777;26;20393;-79
2024/05/05 04:35:20;;;;;;;4.25;3.08;;;;;;;;;;5344605;26;20001;-79
2024/05/05 04:37:46;;;;;;;5.03;3.22;;;;;;;;;;5333201;26;20341;-81
2024/05/05 04:40:20;;;;;;;4.22;2.92;;;;;;;;;;5337038;26;20011;-80
2024/05/05 04:42:51;;;;;;;6.40;4.32;;;;;;;;;;5337567;26;20078;-79
2024/05/05 04:45:19;;;;;;;3.00;2.63;;;;;;;;;;5399968;26;20328;-82
2024/05/05 04:47:48;;;;;;;4.57;2.20;;;;;;;;;;5366766;26;20078;-80
2024/05/05 04:50:13;;;;;;;5.75;4.05;;;;;;;;;;5373444;26;20041;-80
2024/05/05 04:52:41;;;;;;;3.75;2.45;;;;;;;;;;5380991;26;20350;-79
2024/05/05 04:55:12;;;;;;;5.80;3.03;;;;;;;;;;5416558;26;19999;-78
2024/05/05 04:57:55;;;;;;;7.97;4.18;;;;;;;;;;5423105;26;20048;-80
2024/05/05 05:00:23;;;;;;;4.80;3.45;;;;;;;;;;5416182;26;20012;-79
2024/05/05 05:02:56;;;;;;;4.95;3.10;;;;;;;;;;5423265;26;19999;-79
2024/05/05 05:05:21;;;;;;;3.78;2.25;;;;;;;;;;5431042;26;20022;-78
2024/05/05 05:07:47;;;;;;;8.48;3.95;;;;;;;;;;5387089;26;20010;-80
2024/05/05 05:10:16;;;;;;;7.00;3.75;;;;;;;;;;5382347;26;20339;-79
2024/05/05 05:12:43;;;;;;;6.28;2.83;;;;;;;;;;5417953;26;20010;-79
2024/05/05 05:15:12;;;;;;;4.82;3.40;;;;;;;;;;5388635;26;20011;-80
2024/05/05 05:17:38;;;;;;;8.65;3.22;;;;;;;;;;5417588;26;20035;-78
2024/05/05 05:20:03;;;;;;;3.63;3.05;;;;;;;;;;5391777;26;20011;-79
2024/05/05 05:22:32;;;;;;;4.28;2.60;;;;;;;;;;5386917;26;20102;-80
2024/05/05 05:25:00;;;;;;;3.03;2.50;;;;;;;;;;5429387;26;20007;-80
2024/05/05 05:27:25;;;;;;;5.03;3.20;;;;;;;;;;5418903;26;20004;-79
2024/05/05 05:29:51;;;;;;;3.05;2.28;;;;;;;;;;5417672;26;20003;-78
2024/05/05 05:32:16;;;;;;;2.40;2.13;;;;;;;;;;5383003;26;20006;-79
2024/05/05 05:34:42;;;;;;;4.07;2.08;;;;;;;;;;5421343;26;20011;-79
2024/05/05 05:37:07;;;;;;;4.30;3.00;;;;;;;;;;5391378;26;20451;-78
2024/05/05 05:39:33;;;;;;;6.05;2.63;;;;;;;;;;5379097;26;20004;-78
2024/05/05 05:41:58;;;;;;;5.40;2.45;;;;;;;;;;5416906;26;20019;-79
2024/05/05 05:44:23;;;;;;;6.22;2.83;;;;;;;;;;5359946;26;20360;-79
2024/05/05 05:46:49;;;;;;;3.50;2.60;;;;;;;;;;5350465;26;20008;-79
2024/05/05 05:49:14;;;;;;;4.47;2.88;;;;;;;;;;5342795;26;20013;-80
2024/05/05 05:51:40;;;;;;;3.58;2.58;;;;;;;;;;5352035;26;20444;-79
2024/05/05 05:54:05;;;;;;;4.15;3.05;;;;;;;;;;5351925;26;20382;-79
2024/05/05 05:56:31;;;;;;;3.08;2.33;;;;;;;;;;5355744;26;20015;-81
2024/05/05 05:58:56;;;;;;;7.88;3.20;;;;;;;;;;5346611;26;20329;-78
2024/05/05 06:01:21;;;;;;;9.40;2.97;;;;;;;;;;5337682;26;20014;-79
2024/05/05 06:03:47;;;;;;;10.57;4.57;;;;;;;;;;5344682;26;20032;-81
2024/05/05 06:06:13;;;;;;;6.93;4.18;;;;;;;;;;5336679;26;20000;-79
2024/05/05 06:08:38;;;;;;;7.65;3.60;;;;;;;;;;5329251;26;20008;-77
2024/05/05 06:11:03;;;;;;;4.28;2.78;;;;;;;;;;5321635;26;20002;-78
2024/05/05 06:13:29;;;;;;;5.57;3.10;;;;;;;;;;5330143;26;20006;-77
2024/05/05 06:15:54;;;;;;;7.07;3.75;;;;;;;;;;5327699;26;20408;-78
2024/05/05 06:18:19;;;;;;;3.92;2.60;;;;;;;;;;5325224;26;20002;-79
2024/05/05 06:20:45;;;;;;;3.88;2.20;;;;;;;;;;5327351;26;20345;-77
2024/05/05 06:23:10;;;;;;;2.40;2.03;;;;;;;;;;5326818;26;20346;-79
2024/05/05 06:25:36;;;;;;;5.93;3.50;;;;;;;;;;5325085;26;19997;-79
2024/05/05 06:28:02;;;;;;;6.20;3.83;;;;;;;;;;5323205;26;20006;-79
2024/05/05 06:30:27;;;;;;;2.85;2.20;;;;;;;;;;5330753;26;20009;-79
2024/05/05 06:32:54;;;;;;;2.40;2.17;;;;;;;;;;5326760;26;20081;-79
2024/05/05 06:35:19;;;;;;;2.88;2.22;;;;;;;;;;5317452;26;20001;-77
2024/05/05 06:37:45;;;;;;;3.60;1.80;;;;;;;;;;5324373;26;20049;-77
2024/05/05 06:40:10;;;;;;;5.03;2.70;;;;;;;;;;5320962;26;20094;-78
2024/05/05 06:42:35;;;;;;;3.65;2.92;;;;;;;;;;5343895;26;20036;-78
2024/05/05 06:45:01;;;;;;;5.00;2.55;;;;;;;;;;5351334;26;20449;-78
2024/05/05 06:47:26;;;;;;;2.65;2.08;;;;;;;;;;5347991;26;20011;-80
2024/05/05 06:49:52;;;;;;;2.47;2.08;;;;;;;;;;5353222;26;20017;-77
2024/05/05 06:52:17;;;;;;;2.22;1.70;;;;;;;;;;5343428;26;20029;-77
2024/05/05 06:54:43;;;;;;;2.28;1.88;;;;;;;;;;5341283;26;20019;-76
2024/05/05 06:57:08;;;;;;;1.85;1.67;;;;;;;;;;5346141;26;19997;-79
2024/05/05 06:59:36;;;;;;;4.57;2.67;;;;;;;;;;5352668;26;20079;-79
2024/05/05 07:02:02;;;;;;;2.63;2.00;;;;;;;;;;5358411;26;20059;-77
2024/05/05 07:04:27;;;;;;;2.58;1.70;;;;;;;;;;5355685;26;20009;-78
2024/05/05 07:06:53;;;;;;;4.25;1.80;;;;;;;;;;5355990;26;20016;-78
2024/05/05 07:09:23;;;;;;;9.23;2.45;;;;;;;;;;5346733;26;20009;-82
2024/05/05 07:11:49;;;;;;;3.30;2.03;;;;;;;;;;5352445;26;20079;-79
2024/05/05 07:14:14;;;;;;;4.18;2.60;;;;;;;;;;5353170;26;20454;-79
2024/05/05 07:16:40;;;;;;;7.30;1.80;;;;;;;;;;5346371;26;19997;-77
2024/05/05 07:19:05;;;;;;;1.77;1.38;;;;;;;;;;5347690;26;20548;-77
2024/05/05 07:21:30;;;;;;;7.88;2.90;;;;;;;;;;5351001;26;20016;-78
2024/05/05 07:23:56;;;;;;;1.65;1.20;;;;;;;;;;5349753;26;20045;-78
2024/05/05 07:26:21;;;;;;;4.43;1.88;;;;;;;;;;5341097;26;20029;-78
2024/05/05 07:28:47;;;;;;;2.00;1.48;;;;;;;;;;5336077;26;19997;-78
2024/05/05 07:31:14;;;;;;;2.00;1.30;;;;;;;;;;5354581;26;20344;-78
2024/05/05 07:33:39;;;;;;;17.65;3.78;;;;;;;;;;5352422;26;20016;-80
2024/05/05 07:36:05;;;;;;;3.60;2.25;;;;;;;;;;5352271;26;20015;-79
2024/05/05 07:38:31;;;;;;;3.45;2.25;;;;;;;;;;5364787;26;20072;-80
2024/05/05 07:40:56;;;;;;;1.33;1.23;;;;;;;;;;5361590;26;20000;-78
2024/05/05 07:43:22;;;;;;;1.95;1.75;;;;;;;;;;5376274;26;20032;-80
2024/05/05 07:45:47;;;;;;;1.42;1.23;;;;;;;;;;5400881;26;20022;-76
2024/05/05 07:48:13;;;;;;;3.60;2.15;;;;;;;;;;5387511;26;20002;-78
2024/05/05 07:50:38;;;;;;;1.90;1.50;;;;;;;;;;5392707;26;20334;-78
2024/05/05 07:53:04;;;;;;;1.80;1.63;;;;;;;;;;5395147;26;20003;-78
2024/05/05 07:55:29;;;;;;;3.15;1.80;;;;;;;;;;5429793;26;20014;-78
2024/05/05 07:57:55;;;;;;;2.53;1.83;;;;;;;;;;5391140;26;20003;-79
2024/05/05 08:00:20;;;;;;;1.90;1.33;;;;;;;;;;5398753;26;20011;-77
2024/05/05 08:02:45;;;;;;;6.50;1.45;;;;;;;;;;5419747;26;19999;-77
2024/05/05 08:05:11;;;;;;;1.80;1.50;;;;;;;;;;5387224;26;20450;-78
2024/05/05 08:07:36;;;;;;;2.65;2.05;;;;;;;;;;5432714;26;20006;-78
2024/05/05 08:10:02;;;;;;;3.80;1.83;;;;;;;;;;5387147;26;20004;-80
2024/05/05 08:12:27;;;;;;;4.07;2.10;;;;;;;;;;5422466;26;20010;-78
2024/05/05 08:14:53;;;;;;;3.35;1.98;;;;;;;;;;5381831;26;20441;-82
2024/05/05 08:17:18;;;;;;;2.05;1.60;;;;;;;;;;5382747;26;20015;-78
2024/05/05 08:19:44;;;;;;;2.85;1.85;;;;;;;;;;5413819;26;20026;-79
2024/05/05 08:22:09;;;;;;;2.67;2.00;;;;;;;;;;5390502;26;20014;-79
2024/05/05 08:24:35;;;;;;;1.63;1.17;;;;;;;;;;5399528;26;20450;-78
2024/05/05 08:27:01;;;;;;;1.35;1.25;;;;;;;;;;5387996;26;20410;-83
2024/05/05 08:29:26;;;;;;;2.67;1.50;;;;;;;;;;5400963;26;20017;-83
2024/05/05 08:31:52;;;;;;;2.83;1.30;;;;;;;;;;5397379;26;20432;-78
2024/05/05 08:34:17;;;;;;;4.40;1.30;;;;;;;;;;5387760;26;20002;-81
2024/05/05 08:36:43;;;;;;;2.70;1.88;;;;;;;;;;5402786;26;19995;-79
2024/05/05 08:39:08;;;;;;;1.52;1.33;;;;;;;;;;5417321;26;20039;-80
2024/05/05 08:41:37;;;;;;;1.75;1.25;;;;;;;;;;5383578;26;20019;-77
2024/05/05 08:44:05;;;;;;;3.30;1.70;;;;;;;;;;5397207;26;20011;-79
2024/05/05 08:46:32;;;;;;;2.05;1.52;;;;;;;;;;5404323;26;20047;-79
2024/05/05 08:48:59;;;;;;;2.03;1.33;;;;;;;;;;5388779;26;20019;-80
2024/05/05 08:51:25;;;;;;;2.60;1.40;;;;;;;;;;5397797;26;20401;-78
2024/05/05 08:53:50;;;;;;;1.65;1.17;;;;;;;;;;5383352;26;20015;-78
2024/05/05 08:56:17;;;;;;;3.05;1.45;;;;;;;;;;5392128;26;20067;-77
2024/05/05 08:58:43;;;;;;;2.22;1.52;;;;;;;;;;5380667;26;20407;-77
2024/05/05 09:01:31;;;;;;;2.40;1.48;;;;;;;;;;5416558;26;19999;-79
2024/05/05 09:04:16;;;;;;;6.45;1.25;;;;;;;;;;5394150;26;20451;-77
2024/05/05 09:06:43;;;;;;;1.20;1.00;;;;;;;;;;5416167;26;20000;-78
2024/05/05 09:09:11;;;;;;;2.00;1.20;;;;;;;;;;5404450;26;20027;-80
2024/05/05 09:11:37;;;;;;;1.95;1.50;;;;;;;;;;5396376;26;20007;-80
2024/05/05 09:14:15;;;;;;;11.85;1.35;;;;;;;;;;5414364;26;20316;-78
2024/05/05 09:16:48;;;;;;;2.28;1.13;;;;;;;;;;5391583;26;20006;-78
2024/05/05 09:19:14;;;;;;;1.98;1.38;;;;;;;;;;5400015;26;20010;-79
2024/05/05 09:21:40;;;;;;;1.30;1.00;;;;;;;;;;5418830;26;20363;-77
2024/05/05 09:24:06;;;;;;;3.97;1.27;;;;;;;;;;5393149;26;20062;-81
2024/05/05 09:26:32;;;;;;;1.27;1.10;;;;;;;;;;5392137;26;20002;-82
2024/05/05 09:28:59;;;;;;;1.95;1.38;;;;;;;;;;5421862;26;20099;-80
2024/05/05 09:31:25;;;;;;;1.65;1.00;;;;;;;;;;5410607;26;20019;-80
2024/05/05 09:33:50;;;;;;;2.03;1.17;;;;;;;;;;5392613;26;20076;-80
2024/05/05 09:36:17;;;;;;;2.08;1.10;;;;;;;;;;5428723;26;19995;-78
2024/05/05 09:38:44;;;;;;;0.70;0.70;;;;;;;;;;5424325;26;20080;-79
2024/05/05 09:41:10;;;;;;;1.30;1.00;;;;;;;;;;5388784;26;20003;-79
2024/05/05 09:43:36;;;;;;;1.20;0.98;;;;;;;;;;5424679;26;20014;-80
2024/05/05 09:46:09;;;;;;;5.97;1.30;;;;;;;;;;5424352;26;20004;-80
2024/05/05 09:48:36;;;;;;;1.10;1.00;;;;;;;;;;5430506;26;20504;-78
2024/05/05 09:51:10;;;;;;;2.50;1.45;;;;;;;;;;5421863;26;20485;-84
2024/05/05 09:53:55;;;;;;;2.00;1.45;;;;;;;;;;5405523;26;20380;-80
2024/05/05 09:56:39;;;;;;;1.95;1.20;;;;;;;;;;5390635;26;20583;-83
2024/05/05 09:59:14;;;;;;;1.20;1.10;;;;;;;;;;5398373;26;20335;-81
2024/05/05 10:01:41;;;;;;;2.58;1.33;;;;;;;;;;5399543;26;19999;-80
2024/05/05 10:04:09;;;;;;;2.08;0.88;;;;;;;;;;5429369;26;20027;-80
2024/05/05 10:06:45;;;;;;;1.52;1.30;;;;;;;;;;5399534;26;20343;-80
2024/05/05 10:09:47;;;;;;;1.58;1.05;;;;;;;;;;5403332;26;19998;-81
2024/05/05 10:12:12;;;;;;;1.05;0.95;;;;;;;;;;5390255;26;19999;-80
2024/05/05 10:14:41;;;;;;;1.85;0.95;;;;;;;;;;5393122;26;20076;-82
2024/05/05 10:17:09;;;;;;;1.20;1.02;;;;;;;;;;5402955;26;20098;-80
2024/05/05 10:19:38;;;;;;;2.47;1.20;;;;;;;;;;5396339;26;22062;-81
2024/05/05 10:22:10;;;;;;;1.30;0.90;;;;;;;;;;5398323;26;20374;-80
2024/05/05 10:24:41;;;;;;;1.92;1.20;;;;;;;;;;5397927;26;20081;-82
2024/05/05 10:27:09;;;;;;;1.70;1.40;;;;;;;;;;5394188;26;20722;-79
2024/05/05 10:29:35;;;;;;;2.50;1.17;;;;;;;;;;5389093;26;19996;-79
2024/05/05 10:32:01;;;;;;;1.48;1.00;;;;;;;;;;5404082;26;20070;-82
2024/05/05 10:34:29;;;;;;;1.20;1.00;;;;;;;;;;5398640;26;20009;-79
2024/05/05 10:36:55;;;;;;;1.02;0.85;;;;;;;;;;5404482;26;20001;-80
2024/05/05 10:39:23;;;;;;;2.28;1.00;;;;;;;;;;5405770;26;20507;-82
2024/05/05 10:41:49;;;;;;;5.82;1.17;;;;;;;;;;5413715;26;20015;-81
2024/05/05 10:44:17;;;;;;;1.23;0.85;;;;;;;;;;5387917;26;20000;-81
2024/05/05 10:46:59;;;;;;;1.55;1.00;;;;;;;;;;5394468;26;20454;-84
2024/05/05 10:49:25;;;;;;;2.67;1.40;;;;;;;;;;5434774;26;20018;-78
2024/05/05 10:51:51;;;;;;;1.55;1.00;;;;;;;;;;5396440;26;20007;-82
2024/05/05 10:54:17;;;;;;;1.88;1.08;;;;;;;;;;5391534;26;20438;-81
2024/05/05 10:56:47;;;;;;;2.85;1.15;;;;;;;;;;5422606;26;20011;-79
2024/05/05 10:59:22;;;;;;;1.42;0.85;;;;;;;;;;5398606;26;20003;-77
2024/05/05 11:01:54;;;;;;;1.63;1.00;;;;;;;;;;5393888;26;20029;-79
2024/05/05 11:04:32;;;;;;;4.50;1.10;;;;;;;;;;5397336;26;20003;-84
2024/05/05 11:06:58;;;;;;;0.80;0.73;;;;;;;;;;5392851;26;20047;-82
2024/05/05 11:09:26;;;;;;;1.33;0.93;;;;;;;;;;5431976;26;20083;-80
2024/05/05 11:12:02;;;;;;;0.75;0.70;;;;;;;;;;5421457;26;20368;-81
2024/05/05 11:14:28;;;;;;;1.48;1.00;;;;;;;;;;5390719;26;20000;-80
2024/05/05 11:16:55;;;;;;;1.40;0.80;;;;;;;;;;5396141;26;20006;-80
2024/05/05 11:19:20;;;;;;;1.35;0.93;;;;;;;;;;5392643;26;20430;-80
2024/05/05 11:21:47;;;;;;;2.28;1.02;;;;;;;;;;5401648;26;20027;-81
2024/05/05 11:24:15;;;;;;;4.40;1.10;;;;;;;;;;5396642;26;19995;-81
2024/05/05 11:26:48;;;;;;;1.83;1.17;;;;;;;;;;5393271;26;20071;-82
2024/05/05 11:29:23;;;;;;;1.52;0.90;;;;;;;;;;5418114;26;20027;-79
2024/05/05 11:32:01;;;;;;;1.20;1.00;;;;;;;;;;5378389;26;20431;-80
2024/05/05 11:34:26;;;;;;;0.90;0.80;;;;;;;;;;5373059;26;20002;-82
2024/05/05 11:37:05;;;;;;;0.95;0.82;;;;;;;;;;5403514;26;20003;-80
2024/05/05 11:39:31;;;;;;;0.95;0.85;;;;;;;;;;5406083;26;19999;-79
2024/05/05 11:42:09;;;;;;;2.35;0.88;;;;;;;;;;5381298;26;20006;-82
2024/05/05 11:44:34;;;;;;;1.58;1.02;;;;;;;;;;5373081;26;20062;-81
2024/05/05 11:47:18;;;;;;;1.05;0.70;;;;;;;;;;5370319;26;20032;-81
2024/05/05 11:50:03;;;;;;;1.30;0.88;;;;;;;;;;5368131;26;20086;-81
2024/05/05 11:52:41;;;;;;;0.57;0.57;;;;;;;;;;5380972;26;20018;-81
2024/05/05 11:55:09;;;;;;;1.30;0.90;;;;;;;;;;5372237;26;20040;-83
2024/05/05 11:57:34;;;;;;;1.60;1.13;;;;;;;;;;5371497;26;20445;-78
2024/05/05 12:00:01;;;;;;;1.10;0.90;;;;;;;;;;5374980;26;20018;-82
2024/05/05 12:02:26;;;;;;;0.98;0.85;;;;;;;;;;5383427;26;19995;-82
2024/05/05 12:04:52;;;;;;;9.80;1.08;;;;;;;;;;5394551;26;20007;-81
2024/05/05 12:07:19;;;;;;;1.10;0.90;;;;;;;;;;5407971;26;20080;-79
2024/05/05 12:10:13;;;;;;;2.15;1.20;;;;;;;;;;5381517;26;20746;-82
2024/05/05 12:12:40;;;;;;;1.10;0.80;;;;;;;;;;5379023;26;20004;-83
2024/05/05 12:15:06;;;;;;;0.70;0.70;;;;;;;;;;5363032;26;20011;-83
2024/05/05 12:17:52;;;;;;;0.80;0.80;;;;;;;;;;5365860;26;20003;-81
2024/05/05 12:20:29;;;;;;;1.10;0.80;;;;;;;;;;5363897;26;20004;-80
2024/05/05 12:22:55;;;;;;;1.10;0.80;;;;;;;;;;5367168;26;20004;-81
2024/05/05 12:25:21;;;;;;;2.45;1.23;;;;;;;;;;5368278;26;20049;-81
2024/05/05 12:27:47;;;;;;;1.98;0.60;;;;;;;;;;5414169;26;20083;-82
2024/05/05 12:30:12;;;;;;;0.50;0.50;;;;;;;;;;5397754;26;20394;-79
2024/05/05 12:32:38;;;;;;;1.02;0.90;;;;;;;;;;5388010;26;20007;-80
2024/05/05 12:35:04;;;;;;;1.38;0.90;;;;;;;;;;5392375;26;20065;-81
2024/05/05 12:37:29;;;;;;;4.35;0.60;;;;;;;;;;5394982;26;20074;-79
2024/05/05 12:39:55;;;;;;;1.20;0.90;;;;;;;;;;5430586;26;20007;-81
2024/05/05 12:42:20;;;;;;;1.17;0.80;;;;;;;;;;5394989;26;20076;-80
2024/05/05 12:44:46;;;;;;;0.68;0.60;;;;;;;;;;5386948;26;20930;-81
2024/05/05 12:47:22;;;;;;;1.55;0.70;;;;;;;;;;5418818;26;20000;-80
2024/05/05 12:49:47;;;;;;;1.55;1.00;;;;;;;;;;5403535;26;19998;-79
2024/05/05 12:52:16;;;;;;;1.08;0.50;;;;;;;;;;5385411;26;20004;-80
2024/05/05 12:54:42;;;;;;;2.72;0.88;;;;;;;;;;5397768;26;20009;-80
2024/05/05 12:57:11;;;;;;;0.95;0.80;;;;;;;;;;5415790;26;20003;-82
2024/05/05 12:59:37;;;;;;;0.80;0.80;;;;;;;;;;5394590;26;19999;-81
2024/05/05 13:02:04;;;;;;;0.80;0.60;;;;;;;;;;5393763;26;19995;-83
2024/05/05 13:04:29;;;;;;;0.85;0.60;;;;;;;;;;5394408;26;19999;-79
2024/05/05 13:06:54;;;;;;;0.75;0.60;;;;;;;;;;5435585;26;20437;-81
2024/05/05 13:09:20;;;;;;;1.65;0.82;;;;;;;;;;5418558;26;20351;-80
2024/05/05 13:11:45;;;;;;;1.35;0.95;;;;;;;;;;5428473;26;19999;-80
2024/05/05 13:14:11;;;;;;;1.85;0.80;;;;;;;;;;5400712;26;20007;-80
2024/05/05 13:16:36;;;;;;;0.60;0.60;;;;;;;;;;5390488;26;20014;-82
2024/05/05 13:19:01;;;;;;;0.88;0.77;;;;;;;;;;5441310;26;20013;-81
2024/05/05 13:21:27;;;;;;;1.75;0.98;;;;;;;;;;5402093;26;20006;-80
2024/05/05 13:23:52;;;;;;;2.70;1.38;;;;;;;;;;5411779;26;19999;-79
2024/05/05 13:26:18;;;;;;;1.45;0.95;;;;;;;;;;5409670;26;20015;-79
2024/05/05 13:28:45;;;;;;;1.27;0.57;;;;;;;;;;5427140;26;20025;-83
2024/05/05 13:31:10;;;;;;;0.70;0.70;;;;;;;;;;5420838;26;20529;-81
2024/05/05 13:33:36;;;;;;;3.13;0.95;;;;;;;;;;5424623;26;20003;-82
2024/05/05 13:36:01;;;;;;;1.95;0.88;;;;;;;;;;5390848;26;19999;-81
2024/05/05 13:38:27;;;;;;;0.50;0.50;;;;;;;;;;5394932;26;20296;-78
2024/05/05 13:40:52;;;;;;;1.75;1.00;;;;;;;;;;5388796;26;19998;-81
2024/05/05 13:43:18;;;;;;;1.30;0.88;;;;;;;;;;5401197;26;20010;-80
2024/05/05 13:45:43;;;;;;;0.70;0.70;;;;;;;;;;5383084;26;20008;-80
2024/05/05 13:48:08;;;;;;;0.75;0.68;;;;;;;;;;5407774;26;20007;-82
2024/05/05 13:50:35;;;;;;;0.85;0.60;;;;;;;;;;5405606;26;20439;-81
2024/05/05 13:53:00;;;;;;;1.73;0.90;;;;;;;;;;5386984;26;19995;-77
2024/05/05 13:55:26;;;;;;;2.67;1.00;;;;;;;;;;5390610;26;20023;-81
2024/05/05 13:57:51;;;;;;;2.00;1.10;;;;;;;;;;5391314;26;19999;-82
2024/05/05 14:00:16;;;;;;;1.23;0.80;;;;;;;;;;5395807;26;20000;-79
2024/05/05 14:02:42;;;;;;;2.08;0.80;;;;;;;;;;5406644;26;20002;-81
2024/05/05 14:05:07;;;;;;;2.10;0.75;;;;;;;;;;5427867;26;22274;-81
2024/05/05 14:07:33;;;;;;;1.23;0.80;;;;;;;;;;5432314;26;20000;-83
2024/05/05 14:09:58;;;;;;;0.77;0.60;;;;;;;;;;5387372;26;20007;-79
2024/05/05 14:12:24;;;;;;;0.77;0.63;;;;;;;;;;5421258;26;20444;-81
2024/05/05 14:14:49;;;;;;;0.75;0.60;;;;;;;;;;5408601;26;19995;-81
2024/05/05 14:17:15;;;;;;;0.90;0.70;;;;;;;;;;5413071;26;19999;-81
2024/05/05 14:19:40;;;;;;;0.68;0.65;;;;;;;;;;5390814;26;20435;-83
2024/05/05 14:22:06;;;;;;;2.08;0.80;;;;;;;;;;5428466;26;20006;-82
2024/05/05 14:24:31;;;;;;;0.95;0.73;;;;;;;;;;5421685;26;20011;-79
2024/05/05 14:26:56;;;;;;;1.00;0.65;;;;;;;;;;5386234;26;20016;-79
2024/05/05 14:29:22;;;;;;;0.52;0.52;;;;;;;;;;5401823;26;20022;-80
2024/05/05 14:31:47;;;;;;;1.42;0.98;;;;;;;;;;5393732;26;20018;-79
2024/05/05 14:34:13;;;;;;;1.50;0.80;;;;;;;;;;5435863;26;20003;-85
2024/05/05 14:36:38;;;;;;;2.83;0.85;;;;;;;;;;5433352;26;20002;-79
2024/05/05 14:39:03;;;;;;;1.55;1.10;;;;;;;;;;5397845;26;20343;-79
2024/05/05 14:41:29;;;;;;;1.02;0.82;;;;;;;;;;5382820;26;19995;-80
2024/05/05 14:43:54;;;;;;;0.93;0.70;;;;;;;;;;5421095;26;20450;-81
2024/05/05 14:46:20;;;;;;;0.98;0.77;;;;;;;;;;5430090;26;20000;-82
2024/05/05 14:48:45;;;;;;;0.75;0.52;;;;;;;;;;5386377;26;19999;-81
2024/05/05 14:51:11;;;;;;;0.85;0.68;;;;;;;;;;5382543;26;20112;-83
2024/05/05 14:53:36;;;;;;;0.98;0.57;;;;;;;;;;5390182;26;19996;-80